createdAt,value
2019-05-16T00:01:12.033Z,37.38
2019-05-16T00:03:41.911Z,35.45
2019-05-16T00:06:11.917Z,12.43
2019-05-16T00:08:41.590Z,20.75
2019-05-16T00:11:11.293Z,58.10
2019-05-16T00:13:41.041Z,190.62
2019-05-16T00:16:10.760Z,210.17
2019-05-16T00:18:40.541Z,232.90
2019-05-16T00:21:10.343Z,218.00
2019-05-16T00:23:40.073Z,177.82
2019-05-16T00:26:09.861Z,138.60
2019-05-16T00:28:39.629Z,117.95
2019-05-16T00:31:09.351Z,120.45
2019-05-16T00:33:38.915Z,106.87
2019-05-16T00:36:09.179Z,103.80
2019-05-16T00:38:39.154Z,58.00
2019-05-16T00:41:09.157Z,30.40
2019-05-16T00:43:38.740Z,31.40
2019-05-16T00:46:08.522Z,37.45
2019-05-16T00:48:38.337Z,25.35
2019-05-16T00:51:08.354Z,15.10
2019-05-16T00:53:38.395Z,15.40
2019-05-16T00:56:08.876Z,17.25
2019-05-16T00:58:39.189Z,14.33
2019-05-16T01:01:08.987Z,12.37
2019-05-16T01:03:38.767Z,12.37
2019-05-16T01:06:18.393Z,8.13
2019-05-16T01:08:40.106Z,7.17
2019-05-16T01:11:10.039Z,8.05
2019-05-16T01:13:39.785Z,4.60
2019-05-16T01:16:09.717Z,5.78
2019-05-16T01:18:39.505Z,6.78
2019-05-16T01:21:09.304Z,5.47
2019-05-16T01:23:39.124Z,5.85
2019-05-16T01:26:08.882Z,5.35
2019-05-16T01:28:38.721Z,4.17
2019-05-16T01:31:08.768Z,2.52
2019-05-16T01:33:39.177Z,6.90
2019-05-16T01:36:10.057Z,5.22
2019-05-16T01:38:39.781Z,6.92
2019-05-16T01:41:09.492Z,3.95
2019-05-16T01:43:39.247Z,5.83
2019-05-16T01:46:09.008Z,2.90
2019-05-16T01:48:38.688Z,6.95
2019-05-16T01:51:08.421Z,3.60
2019-05-16T01:53:39.469Z,5.37
2019-05-16T01:56:09.380Z,5.33
2019-05-16T01:58:39.182Z,4.15
2019-05-16T02:01:13.346Z,2.35
2019-05-16T02:03:40.509Z,4.65
2019-05-16T02:06:10.217Z,5.72
2019-05-16T02:08:40.199Z,2.90
2019-05-16T02:11:10.056Z,3.05
2019-05-16T02:13:39.840Z,4.10
2019-05-16T02:16:09.645Z,2.55
2019-05-16T02:18:39.353Z,6.62
2019-05-16T02:21:09.080Z,8.10
2019-05-16T02:23:38.892Z,4.75
2019-05-16T02:26:08.554Z,3.85
2019-05-16T02:28:40.908Z,3.42
2019-05-16T02:31:14.753Z,2.65
2019-05-16T02:33:41.569Z,2.12
2019-05-16T02:36:11.353Z,3.17
2019-05-16T02:38:42.206Z,2.55
2019-05-16T02:41:12.419Z,2.90
2019-05-16T02:43:42.738Z,2.87
2019-05-16T02:46:12.737Z,2.30
2019-05-16T02:48:42.785Z,3.33
2019-05-16T02:51:12.634Z,1.77
2019-05-16T02:53:42.434Z,3.90
2019-05-16T02:56:12.561Z,2.35
2019-05-16T02:58:44.928Z,3.00
2019-05-16T03:01:14.215Z,6.17
2019-05-16T03:03:44.363Z,3.22
2019-05-16T03:06:16.008Z,3.00
2019-05-16T03:08:47.299Z,3.37
2019-05-16T03:11:20.832Z,5.75
2019-05-16T03:13:51.315Z,2.92
2019-05-16T03:16:22.431Z,2.60
2019-05-16T03:18:54.691Z,2.80
2019-05-16T03:23:55.544Z,32.15
2019-05-16T03:26:25.546Z,41.15
2019-05-16T03:28:55.292Z,33.00
2019-05-16T03:31:25.563Z,25.80
2019-05-16T03:33:59.867Z,30.77
2019-05-16T03:36:27.620Z,44.05
2019-05-16T03:38:57.724Z,39.98
2019-05-16T03:41:30.687Z,44.77
2019-05-16T03:44:01.406Z,47.20
2019-05-16T03:49:02.495Z,36.68
2019-05-16T03:51:33.240Z,38.55
2019-05-16T03:54:03.357Z,42.20
2019-05-16T03:56:35.069Z,44.15
2019-05-16T03:59:05.268Z,34.23
2019-05-16T04:01:35.663Z,23.83
2019-05-16T04:04:05.921Z,16.27
2019-05-16T04:06:36.311Z,16.55
2019-05-16T04:09:12.245Z,13.72
2019-05-16T04:11:42.587Z,9.35
2019-05-16T04:14:13.115Z,9.58
2019-05-16T04:16:43.406Z,19.37
2019-05-16T04:19:13.483Z,13.28
2019-05-16T04:21:43.796Z,9.63
2019-05-16T04:24:13.975Z,10.53
2019-05-16T04:26:44.221Z,11.88
2019-05-16T04:29:14.577Z,12.00
2019-05-16T04:31:44.888Z,6.62
2019-05-16T04:34:15.199Z,13.43
2019-05-16T04:36:45.243Z,12.28
2019-05-16T04:39:15.436Z,6.40
2019-05-16T04:41:45.880Z,13.80
2019-05-16T04:44:16.208Z,11.30
2019-05-16T04:46:46.553Z,12.85
2019-05-16T04:49:16.781Z,7.25
2019-05-16T04:51:47.075Z,10.60
2019-05-16T04:54:17.417Z,10.28
2019-05-16T04:56:47.601Z,4.80
2019-05-16T04:59:20.720Z,6.92
2019-05-16T05:01:51.144Z,4.45
2019-05-16T05:04:21.653Z,9.65
2019-05-16T05:06:53.711Z,3.22
2019-05-16T05:09:23.384Z,6.65
2019-05-16T05:11:53.572Z,5.72
2019-05-16T05:14:23.853Z,4.45
2019-05-16T05:16:54.048Z,4.28
2019-05-16T05:19:24.206Z,8.03
2019-05-16T05:21:54.533Z,5.20
2019-05-16T05:24:24.995Z,7.65
2019-05-16T05:26:55.085Z,7.55
2019-05-16T05:29:25.382Z,9.43
2019-05-16T05:31:55.957Z,10.15
2019-05-16T05:34:26.616Z,10.08
2019-05-16T05:36:56.805Z,13.53
2019-05-16T05:39:27.098Z,9.88
2019-05-16T05:41:59.913Z,14.55
2019-05-16T05:47:00.938Z,13.53
2019-05-16T05:49:31.399Z,11.65
2019-05-16T05:52:01.689Z,10.55
2019-05-16T05:54:32.119Z,11.57
2019-05-16T05:57:02.413Z,7.40
2019-05-16T05:59:32.578Z,10.43
2019-05-16T06:02:03.132Z,10.93
2019-05-16T06:04:33.218Z,11.05
2019-05-16T06:07:03.577Z,13.28
2019-05-16T06:09:33.756Z,14.47
2019-05-16T06:12:03.833Z,12.53
2019-05-16T06:14:34.283Z,21.07
2019-05-16T06:17:04.777Z,12.45
2019-05-16T06:19:35.036Z,26.40
2019-05-16T06:22:05.365Z,25.12
2019-05-16T06:24:35.578Z,23.40
2019-05-16T06:27:06.036Z,35.78
2019-05-16T06:29:36.592Z,10.90
2019-05-16T06:32:07.030Z,20.20
2019-05-16T06:34:37.238Z,22.13
2019-05-16T06:37:09.673Z,38.88
2019-05-16T06:39:44.688Z,17.40
2019-05-16T06:42:11.259Z,39.90
2019-05-16T06:44:41.487Z,49.30
2019-05-16T06:47:19.369Z,20.75
2019-05-16T06:52:13.451Z,12.25
2019-05-16T06:54:43.623Z,21.35
2019-05-16T06:57:13.871Z,11.15
2019-05-16T06:59:44.414Z,13.43
2019-05-16T07:02:26.703Z,3.87
2019-05-16T07:04:46.741Z,11.65
2019-05-16T07:07:17.120Z,10.68
2019-05-16T07:09:58.078Z,8.98
2019-05-16T07:12:20.282Z,5.28
2019-05-16T07:14:50.764Z,7.00
2019-05-16T07:17:20.935Z,4.67
2019-05-16T07:19:51.188Z,6.90
2019-05-16T07:22:21.439Z,6.65
2019-05-16T07:24:51.566Z,7.12
2019-05-16T07:27:22.064Z,8.68
2019-05-16T07:29:52.283Z,4.33
2019-05-16T07:32:22.574Z,8.95
2019-05-16T07:34:52.837Z,8.95
2019-05-16T07:37:23.165Z,18.60
2019-05-16T07:39:53.350Z,11.83
2019-05-16T07:42:23.628Z,16.93
2019-05-16T07:44:53.943Z,21.15
2019-05-16T07:47:24.230Z,5.62
2019-05-16T07:49:54.590Z,4.55
2019-05-16T07:52:24.739Z,14.28
2019-05-16T07:54:55.041Z,27.87
2019-05-16T07:57:25.227Z,9.50
2019-05-16T07:59:55.654Z,8.45
2019-05-16T08:02:25.909Z,6.95
2019-05-16T08:04:56.283Z,4.83
2019-05-16T08:07:26.359Z,7.15
2019-05-16T08:09:56.511Z,10.63
2019-05-16T08:12:27.294Z,3.15
2019-05-16T08:15:00.430Z,6.30
2019-05-16T08:17:31.469Z,5.42
2019-05-16T08:20:01.523Z,2.70
2019-05-16T08:22:31.726Z,6.45
2019-05-16T08:25:02.117Z,4.60
2019-05-16T08:27:32.278Z,4.00
2019-05-16T08:30:02.791Z,3.25
2019-05-16T08:32:32.825Z,6.35
2019-05-16T08:35:02.846Z,12.10
2019-05-16T08:40:11.429Z,5.15
2019-05-16T08:42:41.981Z,3.62
2019-05-16T08:45:14.104Z,7.58
2019-05-16T08:50:14.912Z,10.10
2019-05-16T08:52:45.142Z,6.85
2019-05-16T08:55:15.814Z,6.50
2019-05-16T08:57:45.970Z,7.05
2019-05-16T09:00:16.739Z,10.78
2019-05-16T09:02:47.127Z,4.60
2019-05-16T09:05:17.367Z,5.37
2019-05-16T09:07:47.855Z,4.83
2019-05-16T09:12:50.200Z,6.42
2019-05-16T09:15:21.002Z,10.25
2019-05-16T09:17:51.239Z,7.60
2019-05-16T09:18:39.128Z,6.28
2019-05-16T09:20:22.147Z,5.15
2019-05-16T09:22:52.416Z,6.33
2019-05-16T09:25:22.629Z,4.28
2019-05-16T09:27:52.895Z,5.87
2019-05-16T09:30:23.549Z,5.67
2019-05-16T09:32:53.920Z,5.05
2019-05-16T09:35:24.028Z,4.65
2019-05-16T09:37:54.194Z,5.40
2019-05-16T09:40:27.602Z,3.83
2019-05-16T09:42:56.912Z,10.50
2019-05-16T09:45:27.459Z,21.15
2019-05-16T09:47:57.667Z,23.18
2019-05-16T09:50:29.088Z,15.13
2019-05-16T09:52:59.706Z,3.65
2019-05-16T09:55:29.747Z,10.95
2019-05-16T09:58:00.070Z,14.78
2019-05-16T10:00:31.080Z,2.45
2019-05-16T10:03:01.623Z,7.83
2019-05-16T10:05:31.735Z,6.20
2019-05-16T10:08:01.962Z,10.10
2019-05-16T10:10:32.378Z,6.90
2019-05-16T10:13:02.443Z,6.72
2019-05-16T10:15:32.712Z,5.70
2019-05-16T10:18:03.026Z,3.85
2019-05-16T10:20:33.211Z,4.65
2019-05-16T10:23:03.657Z,4.28
2019-05-16T10:25:33.821Z,6.33
2019-05-16T10:28:04.278Z,17.65
2019-05-16T10:30:37.675Z,5.87
2019-05-16T10:33:07.806Z,4.55
2019-05-16T10:35:38.281Z,9.83
2019-05-16T10:38:08.544Z,7.97
2019-05-16T10:40:38.904Z,9.50
2019-05-16T10:43:09.202Z,10.72
2019-05-16T10:45:39.396Z,12.55
2019-05-16T10:48:09.658Z,8.30
2019-05-16T10:50:40.085Z,6.97
2019-05-16T10:55:41.571Z,4.67
2019-05-16T10:58:11.951Z,6.58
2019-05-16T11:01:07.435Z,9.18
2019-05-16T11:03:17.093Z,4.00
2019-05-16T11:06:01.248Z,3.72
2019-05-16T11:08:19.816Z,9.58
2019-05-16T11:10:50.005Z,11.22
2019-05-16T11:13:20.558Z,3.90
2019-05-16T11:15:50.860Z,7.45
2019-05-16T11:18:21.173Z,4.50
2019-05-16T11:20:51.411Z,3.15
2019-05-16T11:23:23.650Z,11.25
2019-05-16T11:25:55.298Z,10.90
2019-05-16T11:28:25.486Z,7.28
2019-05-16T11:31:02.556Z,3.90
2019-05-16T11:35:58.749Z,9.75
2019-05-16T11:38:29.090Z,4.03
2019-05-16T11:40:59.315Z,3.65
2019-05-16T11:43:29.614Z,6.20
2019-05-16T11:46:00.026Z,3.15
2019-05-16T11:48:30.146Z,6.75
2019-05-16T11:51:00.481Z,5.55
2019-05-16T11:53:30.896Z,6.40
2019-05-16T11:56:02.063Z,6.35
2019-05-16T11:58:32.390Z,3.72
2019-05-16T12:01:02.492Z,5.22
2019-05-16T12:03:32.697Z,7.92
2019-05-16T12:06:03.149Z,3.87
2019-05-16T12:08:33.394Z,2.85
2019-05-16T12:11:03.601Z,5.17
2019-05-16T12:13:33.866Z,4.50
2019-05-16T12:16:04.196Z,2.17
2019-05-16T12:18:37.123Z,3.08
2019-05-16T12:21:07.708Z,4.37
2019-05-16T12:23:38.545Z,4.42
2019-05-16T12:26:08.674Z,4.33
2019-05-16T12:28:39.076Z,5.37
2019-05-16T12:31:09.272Z,7.37
2019-05-16T12:33:39.747Z,2.92
2019-05-16T12:36:10.234Z,4.17
2019-05-16T12:38:40.536Z,5.55
2019-05-16T12:41:10.664Z,4.28
2019-05-16T12:43:48.917Z,2.90
2019-05-16T12:46:12.815Z,3.85
2019-05-16T12:48:43.165Z,3.52
2019-05-16T12:51:13.710Z,4.60
2019-05-16T12:53:44.221Z,3.35
2019-05-16T12:56:17.358Z,4.65
2019-05-16T13:01:20.626Z,13.83
2019-05-16T13:06:19.485Z,5.53
2019-05-16T13:08:53.265Z,6.12
2019-05-16T13:11:21.552Z,5.62
2019-05-16T13:14:03.269Z,6.60
2019-05-16T13:16:23.977Z,12.50
2019-05-16T13:18:56.587Z,10.23
2019-05-16T13:21:27.497Z,10.88
2019-05-16T13:26:28.298Z,5.10
2019-05-16T13:28:58.702Z,1.80
2019-05-16T13:31:29.058Z,4.92
2019-05-16T13:33:59.589Z,7.75
2019-05-16T13:36:29.855Z,6.50
2019-05-16T13:39:00.386Z,6.22
2019-05-16T13:41:34.201Z,5.75
2019-05-16T13:46:34.205Z,5.28
2019-05-16T13:49:06.730Z,7.87
2019-05-16T13:51:37.354Z,4.42
2019-05-16T13:54:07.857Z,7.60
2019-05-16T13:56:38.279Z,5.95
2019-05-16T13:59:08.516Z,7.42
2019-05-16T14:01:38.804Z,9.78
2019-05-16T14:04:10.155Z,10.00
2019-05-16T14:06:41.789Z,9.90
2019-05-16T14:09:12.427Z,4.75
2019-05-16T14:11:42.624Z,8.05
2019-05-16T14:14:13.039Z,12.03
2019-05-16T14:16:43.323Z,10.80
2019-05-16T14:19:13.608Z,21.07
2019-05-16T14:21:43.959Z,4.58
2019-05-16T14:24:17.824Z,6.20
2019-05-16T14:26:46.548Z,3.70
2019-05-16T14:29:17.646Z,10.68
2019-05-16T14:31:48.469Z,12.82
2019-05-16T14:34:18.871Z,5.08
2019-05-16T14:36:49.371Z,2.70
2019-05-16T14:39:19.975Z,3.40
2019-05-16T14:41:50.102Z,4.62
2019-05-16T14:44:20.313Z,3.30
2019-05-16T14:46:50.828Z,3.08
2019-05-16T14:49:20.892Z,11.60
2019-05-16T14:51:51.156Z,6.85
2019-05-16T14:54:21.941Z,9.80
2019-05-16T14:56:52.317Z,7.75
2019-05-16T14:59:22.655Z,11.03
2019-05-16T15:01:52.900Z,4.55
2019-05-16T15:04:23.217Z,9.18
2019-05-16T15:06:53.446Z,5.30
2019-05-16T15:09:23.537Z,8.43
2019-05-16T15:11:53.852Z,3.67
2019-05-16T15:14:24.109Z,4.80
2019-05-16T15:16:54.209Z,2.10
2019-05-16T15:19:24.423Z,6.80
2019-05-16T15:21:57.050Z,3.65
2019-05-16T15:24:26.933Z,2.77
2019-05-16T15:27:01.199Z,4.10
2019-05-16T15:29:28.921Z,10.35
2019-05-16T15:31:59.231Z,11.70
2019-05-16T15:34:30.329Z,5.53
2019-05-16T15:37:01.735Z,11.83
2019-05-16T15:39:32.242Z,7.22
2019-05-16T15:42:02.681Z,16.37
2019-05-16T15:44:33.072Z,18.95
2019-05-16T15:47:03.282Z,13.18
2019-05-16T15:49:33.844Z,3.58
2019-05-16T15:52:04.213Z,4.22
2019-05-16T15:54:37.469Z,3.70
2019-05-16T15:57:06.910Z,5.67
2019-05-16T15:59:37.647Z,4.87
2019-05-16T16:02:08.227Z,15.08
2019-05-16T16:04:38.519Z,3.87
2019-05-16T16:07:08.664Z,2.20
2019-05-16T16:09:39.067Z,3.20
2019-05-16T16:12:10.877Z,6.00
2019-05-16T16:14:41.107Z,2.92
2019-05-16T16:17:12.368Z,7.80
2019-05-16T16:19:42.678Z,4.78
2019-05-16T16:22:13.093Z,10.18
2019-05-16T16:24:43.281Z,5.17
2019-05-16T16:27:13.623Z,3.20
2019-05-16T16:29:43.977Z,3.62
2019-05-16T16:32:14.231Z,2.80
2019-05-16T16:34:48.764Z,4.55
2019-05-16T16:37:18.058Z,2.22
2019-05-16T16:39:48.396Z,4.97
2019-05-16T16:42:18.855Z,4.47
2019-05-16T16:44:49.202Z,3.00
2019-05-16T16:47:19.797Z,2.50
2019-05-16T16:49:49.918Z,5.05
2019-05-16T16:52:20.254Z,5.28
2019-05-16T16:54:50.696Z,10.15
2019-05-16T16:57:20.923Z,4.47
2019-05-16T16:59:50.925Z,8.83
2019-05-16T17:02:21.093Z,6.10
2019-05-16T17:04:51.942Z,2.50
2019-05-16T17:07:22.581Z,16.47
2019-05-16T17:09:52.855Z,13.25
2019-05-16T17:12:22.912Z,3.30
2019-05-16T17:14:53.157Z,3.05
2019-05-16T17:17:23.439Z,2.85
2019-05-16T17:19:53.740Z,6.55
2019-05-16T17:22:23.966Z,2.67
2019-05-16T17:24:56.522Z,5.47
2019-05-16T17:30:00.511Z,15.40
2019-05-16T17:34:58.780Z,8.20
2019-05-16T17:37:29.099Z,5.87
2019-05-16T17:39:59.546Z,4.37
2019-05-16T17:42:29.736Z,14.18
2019-05-16T17:45:00.090Z,11.38
2019-05-16T17:47:30.423Z,7.40
2019-05-16T17:50:00.769Z,3.92
2019-05-16T17:52:31.025Z,11.80
2019-05-16T17:55:01.408Z,30.85
2019-05-16T17:57:31.703Z,2.10
2019-05-16T18:00:02.049Z,8.00
2019-05-16T18:02:32.394Z,19.52
2019-05-16T18:05:02.716Z,13.58
2019-05-16T18:07:33.223Z,11.00
2019-05-16T18:10:04.082Z,17.32
2019-05-16T18:12:36.996Z,25.77
2019-05-16T18:15:11.032Z,25.48
2019-05-16T18:17:41.201Z,7.62
2019-05-16T18:20:12.195Z,2.98
2019-05-16T18:22:42.571Z,7.67
2019-05-16T18:25:13.097Z,4.25
2019-05-16T18:27:43.384Z,1.87
2019-05-16T18:30:16.501Z,6.25
2019-05-16T18:32:46.358Z,7.75
2019-05-16T18:35:16.875Z,4.62
2019-05-16T18:37:47.098Z,2.83
2019-05-16T18:40:18.138Z,6.33
2019-05-16T18:42:48.752Z,7.55
2019-05-16T18:45:19.509Z,3.80
2019-05-16T18:47:49.848Z,3.87
2019-05-16T18:50:20.354Z,3.75
2019-05-16T18:52:50.605Z,1.62
2019-05-16T18:55:20.765Z,5.03
2019-05-16T18:57:50.985Z,2.60
2019-05-16T19:00:21.460Z,3.60
2019-05-16T19:02:52.135Z,6.03
2019-05-16T19:05:22.426Z,8.10
2019-05-16T19:07:52.718Z,6.00
2019-05-16T19:10:23.175Z,7.67
2019-05-16T19:12:53.423Z,4.87
2019-05-16T19:15:24.055Z,5.97
2019-05-16T19:17:58.486Z,3.58
2019-05-16T19:20:26.461Z,3.35
2019-05-16T19:22:58.849Z,5.35
2019-05-16T19:25:28.616Z,4.87
2019-05-16T19:27:58.691Z,3.85
2019-05-16T19:30:28.688Z,7.42
2019-05-16T19:32:58.539Z,8.90
2019-05-16T19:35:28.538Z,3.25
2019-05-16T19:37:58.695Z,4.42
2019-05-16T19:40:28.831Z,22.55
2019-05-16T19:42:58.611Z,52.48
2019-05-16T19:45:28.413Z,27.30
2019-05-16T19:47:58.659Z,18.15
2019-05-16T19:50:28.431Z,14.75
2019-05-16T19:52:58.156Z,5.47
2019-05-16T19:55:27.948Z,5.28
2019-05-16T19:57:57.689Z,11.08
2019-05-16T20:00:27.694Z,17.42
2019-05-16T20:02:57.513Z,16.85
2019-05-16T20:05:27.897Z,15.45
2019-05-16T20:07:57.701Z,16.82
2019-05-16T20:10:27.511Z,13.05
2019-05-16T20:12:57.383Z,13.32
2019-05-16T20:15:27.080Z,12.23
2019-05-16T20:17:58.608Z,21.82
2019-05-16T20:20:28.335Z,19.30
2019-05-16T20:22:57.997Z,16.85
2019-05-16T20:25:27.744Z,9.10
2019-05-16T20:27:57.646Z,33.80
2019-05-16T20:30:27.718Z,26.87
2019-05-16T20:32:57.660Z,15.28
2019-05-16T20:35:27.253Z,6.40
2019-05-16T20:37:57.110Z,4.80
2019-05-16T20:40:26.768Z,6.00
2019-05-16T20:42:59.443Z,4.47
2019-05-16T20:48:08.040Z,9.53
2019-05-16T20:50:29.420Z,5.42
2019-05-16T20:52:58.995Z,6.58
2019-05-16T20:55:28.706Z,5.72
2019-05-16T20:57:58.453Z,14.25
2019-05-16T21:00:28.265Z,6.95
2019-05-16T21:02:58.066Z,11.93
2019-05-16T21:05:29.474Z,13.65
2019-05-16T21:07:59.241Z,14.73
2019-05-16T21:10:29.000Z,12.73
2019-05-16T21:12:59.358Z,8.93
2019-05-16T21:15:29.239Z,21.95
2019-05-16T21:17:58.913Z,10.00
2019-05-16T21:20:29.968Z,16.85
2019-05-16T21:22:59.880Z,14.63
2019-05-16T21:25:29.653Z,5.35
2019-05-16T21:27:59.419Z,7.40
2019-05-16T21:30:29.212Z,11.60
2019-05-16T21:32:58.885Z,3.45
2019-05-16T21:35:28.670Z,5.97
2019-05-16T21:37:58.404Z,7.37
2019-05-16T21:40:28.234Z,3.00
2019-05-16T21:42:58.775Z,5.97
2019-05-16T21:45:28.830Z,8.18
2019-05-16T21:47:58.484Z,5.60
2019-05-16T21:50:28.423Z,11.33
2019-05-16T21:52:58.618Z,10.10
2019-05-16T21:55:30.047Z,3.35
2019-05-16T21:57:59.748Z,4.70
2019-05-16T22:00:38.580Z,6.97
2019-05-16T22:03:09.223Z,3.85
2019-05-16T22:05:39.015Z,5.97
2019-05-16T22:08:11.665Z,3.45
2019-05-16T22:10:40.508Z,6.33
2019-05-16T22:13:10.267Z,6.50
2019-05-16T22:15:40.088Z,7.72
2019-05-16T22:18:09.888Z,8.73
2019-05-16T22:20:39.712Z,4.00
2019-05-16T22:23:09.615Z,6.47
2019-05-16T22:25:39.420Z,7.08
2019-05-16T22:28:09.345Z,5.47
2019-05-16T22:30:39.344Z,9.05
2019-05-16T22:33:09.449Z,9.43
2019-05-16T22:35:39.506Z,8.03
2019-05-16T22:38:09.427Z,8.25
2019-05-16T22:40:45.665Z,10.05
2019-05-16T22:43:12.680Z,8.35
2019-05-16T22:45:46.734Z,7.55
2019-05-16T22:48:14.118Z,6.17
2019-05-16T22:50:43.917Z,5.40
2019-05-16T22:53:13.749Z,15.80
2019-05-16T22:55:43.408Z,9.28
2019-05-16T22:58:16.400Z,19.50
2019-05-16T23:00:46.429Z,12.68
2019-05-16T23:03:17.450Z,11.63
2019-05-16T23:05:47.556Z,22.70
2019-05-16T23:08:17.393Z,17.75
2019-05-16T23:10:47.122Z,15.95
2019-05-16T23:13:17.078Z,7.90
2019-05-16T23:15:46.978Z,6.33
2019-05-16T23:18:17.280Z,8.15
2019-05-16T23:20:47.501Z,9.95
2019-05-16T23:23:17.673Z,6.62
2019-05-16T23:25:47.525Z,8.33
2019-05-16T23:28:17.397Z,13.78
2019-05-16T23:30:47.252Z,9.50
2019-05-16T23:33:17.143Z,9.03
2019-05-16T23:35:47.005Z,7.80
2019-05-16T23:38:19.984Z,7.65
2019-05-16T23:40:48.289Z,9.30
2019-05-16T23:43:18.038Z,10.50
2019-05-16T23:45:49.488Z,4.47
2019-05-16T23:48:19.079Z,7.40
2019-05-16T23:50:48.661Z,7.30
2019-05-16T23:53:18.290Z,5.30
2019-05-16T23:55:48.318Z,8.03
2019-05-16T23:58:18.437Z,5.25
